Aviation Digital Data Service (ADDS)

Output produced by METARs form (0932 UTC 16 February 2019)
found at http://www.aviationweather.gov/metar/data/
 
METAR text: KPWA 160853Z AUTO 03012KT 6SM BR OVC003 M06/M06 A2999 RMK AO2 SLP168 I1000 I3000 T10561061 56008
Conditions at: KPWA (OKLA CITY/WILEY , OK, US) observed 0853 UTC 16 February 2019
Temperature: -5.6°C (22°F)
Dewpoint: -6.1°C (21°F) [RH = 96%]
Pressure (altimeter): 29.99 inches Hg (1015.7 mb)
[Sea-level pressure: 1016.8 mb]
Winds: from the NNE (30 degrees) at 14 MPH (12 knots; 6.2 m/s)
Visibility: 6 miles (10 km)
Ceiling: 300 feet AGL
Clouds: overcast cloud deck at 300 feet AGL
Weather: BR  (mist)